Time;durP1;ratioP1;P1;durP2;ratioP2;P2;SDS_P1;SDS_P2;PMS_P1;PMS_P2;Temp;Humidity;BMP_temperature;BMP_pressure;BME280_temperature;BME280_humidity;BME280_pressure;Samples;Min_cycle;Max_cycle;Signal;HPM_P1;HPM_P2
2022/03/08 00:01:49;;;;;;;2.55;0.85;;;19.50;42.90;;;;;;4953786;29;20479;-84
2022/03/08 00:04:14;;;;;;;3.70;0.82;;;19.50;42.30;;;;;;4937421;29;20142;-84
2022/03/08 00:06:41;;;;;;;3.00;1.05;;;19.50;42.20;;;;;;4953979;29;20597;-84
2022/03/08 00:09:06;;;;;;;2.10;0.80;;;19.50;42.20;;;;;;4937140;29;20047;-84
2022/03/08 00:11:32;;;;;;;1.83;0.90;;;19.50;42.30;;;;;;4953796;29;20047;-83
2022/03/08 00:13:58;;;;;;;2.03;0.90;;;20.40;42.90;;;;;;4937652;29;20106;-83
2022/03/08 00:16:29;;;;;;;2.20;0.65;;;20.60;43.00;;;;;;4937367;29;20074;-83
2022/03/08 00:19:01;;;;;;;2.67;0.80;;;20.40;42.90;;;;;;4953461;29;20829;-83
2022/03/08 00:21:33;;;;;;;2.08;0.80;;;21.10;43.60;;;;;;4937408;29;20044;-83
2022/03/08 00:24:01;;;;;;;2.85;0.80;;;17.60;41.90;;;;;;4952732;29;20111;-84
2022/03/08 00:26:35;;;;;;;1.48;0.70;;;19.40;42.70;;;;;;4937248;29;20133;-83
2022/03/08 00:29:07;;;;;;;2.38;0.80;;;20.50;43.40;;;;;;4937163;29;20058;-83
2022/03/08 00:31:33;;;;;;;2.00;0.90;;;20.20;43.30;;;;;;4952576;28;20499;-83
2022/03/08 00:33:58;;;;;;;2.00;0.80;;;20.50;42.80;;;;;;4952918;29;20054;-83
2022/03/08 00:36:42;;;;;;;2.40;0.80;;;17.40;41.40;;;;;;4953080;29;20143;-82
2022/03/08 00:39:11;;;;;;;2.00;0.70;;;20.20;43.00;;;;;;4936478;29;20051;-83
2022/03/08 00:41:37;;;;;;;2.88;0.93;;;20.10;42.90;;;;;;4952911;29;20134;-83
2022/03/08 00:44:05;;;;;;;3.63;0.80;;;20.90;43.30;;;;;;4936411;29;20422;-83
2022/03/08 00:46:38;;;;;;;2.80;1.00;;;19.40;42.30;;;;;;4952717;29;20138;-83
2022/03/08 00:49:04;;;;;;;2.53;1.00;;;19.40;42.20;;;;;;4952793;29;20063;-83
2022/03/08 00:51:30;;;;;;;2.92;1.08;;;19.30;42.20;;;;;;4936227;29;20050;-83
2022/03/08 00:53:55;;;;;;;1.95;0.70;;;19.20;42.10;;;;;;4952847;29;20051;-83
2022/03/08 00:56:21;;;;;;;2.17;0.80;;;19.30;42.10;;;;;;4952726;29;20456;-83
2022/03/08 00:58:46;;;;;;;2.50;0.80;;;19.30;42.20;;;;;;4952232;29;20054;-83
2022/03/08 01:01:12;;;;;;;2.20;0.73;;;19.30;42.20;;;;;;4952698;29;20134;-83
2022/03/08 01:03:38;;;;;;;2.17;0.80;;;19.30;42.20;;;;;;4952891;29;20486;-83
2022/03/08 01:06:03;;;;;;;1.75;0.80;;;19.50;42.30;;;;;;4935880;29;20089;-84
2022/03/08 01:08:29;;;;;;;4.40;0.80;;;19.30;42.20;;;;;;4936469;29;20110;-83
2022/03/08 01:10:54;;;;;;;2.85;1.00;;;19.30;42.20;;;;;;4936522;29;20117;-84
2022/03/08 01:13:26;;;;;;;2.67;1.00;;;19.30;42.20;;;;;;4951779;29;20087;-83
2022/03/08 01:15:51;;;;;;;1.92;0.82;;;19.30;42.30;;;;;;4952612;29;20058;-83
2022/03/08 01:18:19;;;;;;;1.77;0.68;;;20.70;42.90;;;;;;4952634;29;20404;-83
2022/03/08 01:20:50;;;;;;;2.53;0.90;;;19.30;42.20;;;;;;4951701;29;20047;-84
2022/03/08 01:23:24;;;;;;;2.47;0.90;;;18.90;42.00;;;;;;4920560;29;20050;-83
2022/03/08 01:26:05;;;;;;;2.55;0.82;;;20.60;43.00;;;;;;4952602;29;20043;-83
2022/03/08 01:28:30;;;;;;;3.90;0.88;;;20.80;44.60;;;;;;4935506;29;20051;-83
2022/03/08 01:30:56;;;;;;;1.60;0.75;;;20.20;42.70;;;;;;4952172;29;20039;-83
2022/03/08 01:33:21;;;;;;;2.38;0.70;;;17.00;41.10;;;;;;4935494;29;20051;-83
2022/03/08 01:35:56;;;;;;;2.90;0.90;;;18.90;42.10;;;;;;4952028;29;20411;-83
2022/03/08 01:38:27;;;;;;;2.08;0.90;;;19.10;42.50;;;;;;4936016;29;20054;-83
2022/03/08 01:40:59;;;;;;;2.97;0.82;;;18.70;42.10;;;;;;4935348;29;20047;-83
2022/03/08 01:43:24;;;;;;;2.33;1.00;;;19.40;42.40;;;;;;4951566;28;20426;-84
2022/03/08 01:46:02;;;;;;;3.35;0.88;;;19.00;42.30;;;;;;4951954;29;20167;-83
2022/03/08 01:48:28;;;;;;;2.85;0.85;;;19.50;42.80;;;;;;4950730;29;20579;-83
2022/03/08 01:50:57;;;;;;;1.58;0.82;;;18.90;42.10;;;;;;4935897;29;20061;-84
2022/03/08 01:53:25;;;;;;;1.58;0.60;;;19.20;42.30;;;;;;4935524;29;20491;-83
2022/03/08 01:55:54;;;;;;;1.80;0.80;;;19.70;42.80;;;;;;4935090;29;20039;-83
2022/03/08 01:58:19;;;;;;;2.08;0.80;;;18.00;42.00;;;;;;4935607;29;20058;-83
2022/03/08 02:00:45;;;;;;;2.50;0.73;;;18.10;42.10;;;;;;4951158;29;20054;-83
2022/03/08 02:03:19;;;;;;;4.13;0.80;;;19.80;42.80;;;;;;4951059;29;20322;-83
2022/03/08 02:05:56;;;;;;;2.63;0.82;;;19.80;42.70;;;;;;4951480;29;20047;-83
2022/03/08 02:08:22;;;;;;;2.38;0.80;;;19.10;42.40;;;;;;4951435;29;20114;-83
2022/03/08 02:10:51;;;;;;;2.00;0.85;;;20.60;43.00;;;;;;4934644;29;20051;-82
2022/03/08 02:13:17;;;;;;;2.22;0.80;;;20.20;43.00;;;;;;4935437;29;20090;-83
2022/03/08 02:15:46;;;;;;;2.33;0.90;;;18.70;42.20;;;;;;4951020;29;20078;-82
2022/03/08 02:18:12;;;;;;;3.22;0.90;;;19.10;42.20;;;;;;4935456;29;20069;-83
2022/03/08 02:20:38;;;;;;;2.10;0.90;;;20.30;42.80;;;;;;4951708;29;20058;-82
2022/03/08 02:23:03;;;;;;;1.80;0.82;;;19.10;42.20;;;;;;4934970;29;20059;-82
2022/03/08 02:25:29;;;;;;;3.38;1.25;;;19.10;42.20;;;;;;4951605;29;20047;-82
2022/03/08 02:28:00;;;;;;;2.03;0.80;;;19.10;42.20;;;;;;4951475;29;20110;-82
2022/03/08 02:30:26;;;;;;;1.92;0.80;;;19.00;42.20;;;;;;4934883;29;20070;-83
2022/03/08 02:32:52;;;;;;;1.67;0.80;;;19.10;42.20;;;;;;4951228;29;20775;-83
2022/03/08 02:35:23;;;;;;;2.20;0.80;;;19.00;42.10;;;;;;4935762;29;20059;-83
2022/03/08 02:37:52;;;;;;;2.38;1.10;;;19.00;42.20;;;;;;4934830;29;20040;-82
2022/03/08 02:40:19;;;;;;;1.52;0.70;;;19.00;42.20;;;;;;4935521;29;20054;-82
2022/03/08 02:42:45;;;;;;;1.38;0.80;;;19.00;42.20;;;;;;4935038;29;20058;-82
2022/03/08 02:45:11;;;;;;;1.77;0.73;;;19.00;42.10;;;;;;4950671;29;20058;-82
2022/03/08 02:47:38;;;;;;;2.22;0.80;;;19.00;42.20;;;;;;4952176;29;20059;-82
2022/03/08 02:50:06;;;;;;;2.58;0.75;;;19.00;42.20;;;;;;4950958;29;20059;-82
2022/03/08 02:52:34;;;;;;;1.63;0.73;;;19.00;42.20;;;;;;4934235;29;20051;-82
2022/03/08 02:55:00;;;;;;;1.75;0.75;;;20.40;42.90;;;;;;4953759;28;20442;-82
2022/03/08 02:57:26;;;;;;;2.80;0.90;;;19.00;42.20;;;;;;4955480;29;20487;-82
2022/03/08 02:59:51;;;;;;;1.73;0.70;;;19.00;42.20;;;;;;4954241;29;20188;-82
2022/03/08 03:02:17;;;;;;;2.22;0.88;;;18.90;42.10;;;;;;4954991;29;20055;-82
2022/03/08 03:04:43;;;;;;;2.35;0.80;;;19.00;42.20;;;;;;4954330;29;20058;-82
2022/03/08 03:07:08;;;;;;;2.38;0.88;;;18.90;42.10;;;;;;4938725;29;20047;-83
2022/03/08 03:09:34;;;;;;;1.67;0.70;;;18.90;42.20;;;;;;4954862;29;20114;-82
2022/03/08 03:11:59;;;;;;;2.28;0.98;;;19.20;42.30;;;;;;4954312;29;20418;-82
2022/03/08 03:14:25;;;;;;;1.70;0.88;;;18.90;42.10;;;;;;4954878;29;20051;-82
2022/03/08 03:16:50;;;;;;;2.25;0.80;;;18.90;42.20;;;;;;4954726;29;20146;-82
2022/03/08 03:19:16;;;;;;;2.67;1.10;;;18.90;42.20;;;;;;4954293;29;20048;-82
2022/03/08 03:21:42;;;;;;;2.53;0.90;;;18.90;42.10;;;;;;4954983;29;20051;-82
2022/03/08 03:24:07;;;;;;;2.95;0.82;;;18.90;42.20;;;;;;4955906;29;20051;-82
2022/03/08 03:26:33;;;;;;;1.92;0.70;;;18.90;42.20;;;;;;4953755;29;20050;-82
2022/03/08 03:28:58;;;;;;;2.05;0.68;;;18.90;42.20;;;;;;4954490;29;20047;-82
2022/03/08 03:31:24;;;;;;;2.17;0.73;;;18.90;42.20;;;;;;4956079;29;20054;-81
2022/03/08 03:33:52;;;;;;;2.20;0.77;;;18.90;42.10;;;;;;4954013;29;20051;-83
2022/03/08 03:36:18;;;;;;;2.70;0.80;;;18.90;42.20;;;;;;4955697;29;20476;-82
2022/03/08 03:38:46;;;;;;;1.35;0.70;;;18.90;42.20;;;;;;4954155;29;20042;-82
2022/03/08 03:41:11;;;;;;;2.20;0.80;;;18.90;42.20;;;;;;4954917;29;20495;-82
2022/03/08 03:43:39;;;;;;;2.70;0.90;;;18.90;42.20;;;;;;4955782;29;20047;-82
2022/03/08 03:46:06;;;;;;;2.22;0.70;;;18.90;42.20;;;;;;4938162;29;20055;-82
2022/03/08 03:48:32;;;;;;;1.83;0.80;;;18.90;42.20;;;;;;4937459;29;20133;-82
2022/03/08 03:50:57;;;;;;;2.67;0.80;;;18.80;42.10;;;;;;4955384;29;20813;-82
2022/03/08 03:53:23;;;;;;;1.63;0.77;;;18.80;42.10;;;;;;4954065;29;20043;-82
2022/03/08 03:55:48;;;;;;;1.88;0.80;;;18.80;42.10;;;;;;4953593;29;20086;-82
2022/03/08 03:58:14;;;;;;;1.90;0.75;;;18.80;42.10;;;;;;4937869;29;20484;-82
2022/03/08 04:00:39;;;;;;;2.72;0.80;;;18.80;42.10;;;;;;4953735;29;20055;-82
2022/03/08 04:03:05;;;;;;;2.42;0.80;;;18.80;42.10;;;;;;4953109;29;20130;-82
2022/03/08 04:05:31;;;;;;;2.22;1.00;;;18.80;42.20;;;;;;4953096;28;20051;-82
2022/03/08 04:07:59;;;;;;;1.42;0.68;;;18.80;42.10;;;;;;4953726;29;20047;-82
2022/03/08 04:10:25;;;;;;;1.85;0.80;;;18.80;42.10;;;;;;4953240;29;20700;-83
2022/03/08 04:12:50;;;;;;;1.73;0.70;;;18.80;42.10;;;;;;4953833;29;20054;-82
2022/03/08 04:15:16;;;;;;;2.15;0.80;;;18.80;42.20;;;;;;4952894;29;20491;-82
2022/03/08 04:17:41;;;;;;;1.80;0.75;;;18.80;42.10;;;;;;4953891;29;20419;-82
2022/03/08 04:20:10;;;;;;;1.95;0.80;;;18.80;42.10;;;;;;4953685;29;20436;-83
2022/03/08 04:22:36;;;;;;;2.33;1.00;;;18.80;42.20;;;;;;4937351;29;20058;-82
2022/03/08 04:25:04;;;;;;;2.63;0.77;;;18.70;42.10;;;;;;4954840;29;20127;-82
2022/03/08 04:27:30;;;;;;;1.52;0.75;;;18.70;42.10;;;;;;4937504;29;20076;-82
2022/03/08 04:29:58;;;;;;;2.72;0.80;;;18.70;42.10;;;;;;4953010;29;20058;-82
2022/03/08 04:32:24;;;;;;;1.80;0.82;;;18.70;42.10;;;;;;4937669;29;20055;-82
2022/03/08 04:34:52;;;;;;;2.13;0.90;;;18.80;42.20;;;;;;4953678;29;20061;-82
2022/03/08 04:37:22;;;;;;;1.83;0.70;;;18.70;42.10;;;;;;4952577;29;20047;-82
2022/03/08 04:39:47;;;;;;;2.33;0.90;;;18.70;42.10;;;;;;4921555;29;20039;-82
2022/03/08 04:42:13;;;;;;;1.67;0.80;;;18.70;42.10;;;;;;4937286;29;20047;-82
2022/03/08 04:44:38;;;;;;;2.20;1.10;;;18.70;42.10;;;;;;4952606;29;20078;-82
2022/03/08 04:47:04;;;;;;;1.65;0.90;;;18.70;42.20;;;;;;4937418;29;20059;-82
2022/03/08 04:49:30;;;;;;;1.73;0.70;;;18.70;42.10;;;;;;4937114;29;20141;-83
2022/03/08 04:51:55;;;;;;;1.65;0.73;;;18.70;42.10;;;;;;4953851;29;20058;-82
2022/03/08 04:54:21;;;;;;;1.35;0.70;;;18.70;42.10;;;;;;4937247;29;20098;-82
2022/03/08 04:56:46;;;;;;;3.17;1.00;;;18.70;42.20;;;;;;4952891;29;20051;-82
2022/03/08 04:59:12;;;;;;;1.52;0.70;;;18.60;42.10;;;;;;4952439;29;20035;-82
2022/03/08 05:01:37;;;;;;;1.90;0.90;;;18.70;42.10;;;;;;4952743;29;20412;-82
2022/03/08 05:04:08;;;;;;;3.88;0.85;;;19.80;42.70;;;;;;4952994;29;20087;-82
2022/03/08 05:06:34;;;;;;;2.25;0.95;;;19.50;42.50;;;;;;4952017;29;20065;-81
2022/03/08 05:08:59;;;;;;;2.15;0.77;;;18.70;42.10;;;;;;4952713;29;20737;-81
2022/03/08 05:11:25;;;;;;;2.53;1.00;;;18.60;42.10;;;;;;4951925;29;20059;-81
2022/03/08 05:13:53;;;;;;;2.33;0.93;;;18.60;42.10;;;;;;4952769;29;20079;-82
2022/03/08 05:16:19;;;;;;;2.20;0.85;;;18.60;42.20;;;;;;4936030;29;20050;-81
2022/03/08 05:18:44;;;;;;;2.42;0.93;;;18.60;42.10;;;;;;4935399;29;20134;-81
2022/03/08 05:21:10;;;;;;;1.45;0.80;;;18.60;42.10;;;;;;4952386;29;20078;-81
2022/03/08 05:23:36;;;;;;;2.28;0.90;;;18.60;42.10;;;;;;4936630;29;20043;-82
2022/03/08 05:26:04;;;;;;;1.80;0.70;;;18.60;42.10;;;;;;4951706;29;20059;-82
2022/03/08 05:28:30;;;;;;;1.90;0.80;;;18.60;42.10;;;;;;4936309;29;20534;-82
2022/03/08 05:30:56;;;;;;;2.13;0.90;;;18.60;42.10;;;;;;4936518;29;20057;-82
2022/03/08 05:33:24;;;;;;;2.40;0.90;;;18.60;42.10;;;;;;4951565;29;20051;-82
2022/03/08 05:35:50;;;;;;;2.75;0.93;;;18.60;42.10;;;;;;4936615;29;20059;-81
2022/03/08 05:38:16;;;;;;;1.67;0.68;;;18.60;42.10;;;;;;4936472;29;20055;-81
2022/03/08 05:40:42;;;;;;;1.92;0.77;;;19.90;42.80;;;;;;4935505;29;20051;-81
2022/03/08 05:43:08;;;;;;;1.67;0.80;;;18.60;42.10;;;;;;4952035;29;20388;-81
2022/03/08 05:45:33;;;;;;;1.73;0.70;;;18.60;42.10;;;;;;4952020;29;20043;-81
2022/03/08 05:48:02;;;;;;;1.77;0.85;;;18.50;42.10;;;;;;4951159;29;20063;-82
2022/03/08 05:50:27;;;;;;;2.05;1.08;;;18.60;42.10;;;;;;4936157;29;20065;-82
2022/03/08 05:52:53;;;;;;;1.23;0.68;;;18.50;42.20;;;;;;4951809;29;20518;-82
2022/03/08 05:55:21;;;;;;;1.70;0.85;;;18.60;42.10;;;;;;4951567;29;20039;-82
2022/03/08 05:57:47;;;;;;;2.05;0.80;;;18.70;42.20;;;;;;4951903;29;20137;-82
2022/03/08 06:00:13;;;;;;;2.45;1.35;;;18.50;42.10;;;;;;4936020;29;20134;-82
2022/03/08 06:02:38;;;;;;;1.02;0.60;;;18.50;42.10;;;;;;4935438;29;20059;-82
2022/03/08 06:05:05;;;;;;;1.88;0.70;;;18.50;42.10;;;;;;4951868;29;20085;-82
2022/03/08 06:07:30;;;;;;;1.73;0.70;;;18.50;42.10;;;;;;4935871;29;20059;-82
2022/03/08 06:09:56;;;;;;;1.23;0.52;;;18.50;42.10;;;;;;4951200;29;20377;-82
2022/03/08 06:12:21;;;;;;;1.60;0.73;;;18.50;42.10;;;;;;4951883;29;20519;-82
2022/03/08 06:14:47;;;;;;;1.23;0.70;;;19.20;42.50;;;;;;4950982;29;20054;-82
2022/03/08 06:17:13;;;;;;;2.33;0.88;;;19.10;42.40;;;;;;4951792;29;20070;-82
2022/03/08 06:19:38;;;;;;;1.70;0.68;;;18.50;42.20;;;;;;4951584;29;20483;-82
2022/03/08 06:22:04;;;;;;;2.13;0.90;;;18.50;42.20;;;;;;4950677;29;20051;-82
2022/03/08 06:24:30;;;;;;;1.42;0.70;;;18.60;42.30;;;;;;4935051;29;20059;-82
2022/03/08 06:26:55;;;;;;;1.63;0.70;;;18.40;42.20;;;;;;4935624;29;20047;-81
2022/03/08 06:29:21;;;;;;;1.98;0.88;;;18.40;42.10;;;;;;4950598;28;20050;-83
2022/03/08 06:31:46;;;;;;;1.73;0.80;;;18.40;42.10;;;;;;4942442;29;20126;-82
2022/03/08 06:34:12;;;;;;;2.08;0.82;;;19.30;42.60;;;;;;4922874;29;20079;-82
2022/03/08 06:36:41;;;;;;;2.60;0.90;;;18.40;42.10;;;;;;4937522;29;20067;-82
2022/03/08 06:39:07;;;;;;;1.25;0.60;;;18.40;42.10;;;;;;4920943;29;20059;-82
2022/03/08 06:41:32;;;;;;;1.33;0.70;;;18.40;42.20;;;;;;4925035;29;20044;-82
2022/03/08 06:44:00;;;;;;;1.55;0.65;;;18.40;42.10;;;;;;4923754;29;20606;-82
2022/03/08 06:46:25;;;;;;;1.60;0.70;;;18.70;42.30;;;;;;4915698;29;20056;-82
2022/03/08 06:48:51;;;;;;;1.92;0.75;;;18.40;42.20;;;;;;4916096;29;20051;-82
2022/03/08 06:51:16;;;;;;;1.40;0.60;;;18.40;42.20;;;;;;4915697;29;20087;-82
2022/03/08 06:53:42;;;;;;;1.23;0.60;;;18.40;42.20;;;;;;4933767;29;20330;-81
2022/03/08 06:56:10;;;;;;;1.40;0.60;;;18.40;42.20;;;;;;4916213;29;20054;-82
2022/03/08 06:58:36;;;;;;;1.90;0.73;;;18.40;42.20;;;;;;4921652;29;20047;-82
2022/03/08 07:01:01;;;;;;;1.25;0.65;;;18.40;42.20;;;;;;4935101;29;20470;-82
2022/03/08 07:03:27;;;;;;;2.22;0.80;;;18.30;42.20;;;;;;4934941;29;20046;-82
2022/03/08 07:05:52;;;;;;;1.98;0.77;;;18.80;42.40;;;;;;4922936;29;20048;-82
2022/03/08 07:08:18;;;;;;;1.10;0.50;;;18.30;42.10;;;;;;4921518;29;20146;-82
2022/03/08 07:10:43;;;;;;;1.00;0.50;;;18.30;42.20;;;;;;4934938;29;20047;-82
2022/03/08 07:13:09;;;;;;;0.88;0.47;;;18.30;42.10;;;;;;4934317;29;20142;-82
2022/03/08 07:15:35;;;;;;;1.55;0.70;;;18.30;42.10;;;;;;4926299;29;20095;-82
2022/03/08 07:18:06;;;;;;;1.92;0.60;;;18.30;42.20;;;;;;4915039;29;20146;-82
2022/03/08 07:20:41;;;;;;;1.55;0.50;;;18.20;42.70;;;;;;4916281;29;20488;-81
2022/03/08 07:23:22;;;;;;;1.25;0.63;;;18.00;42.10;;;;;;4917306;29;20051;-81
2022/03/08 07:25:51;;;;;;;0.90;0.55;;;18.30;42.40;;;;;;4926406;29;20070;-84
2022/03/08 07:28:23;;;;;;;1.67;0.68;;;18.30;42.80;;;;;;4934622;29;20058;-83
2022/03/08 07:30:54;;;;;;;1.40;0.60;;;18.90;43.10;;;;;;4934849;29;20047;-83
2022/03/08 07:33:20;;;;;;;1.20;0.52;;;16.10;41.50;;;;;;4934295;29;20047;-83
2022/03/08 07:35:46;;;;;;;2.17;0.80;;;18.10;42.20;;;;;;4934707;29;20067;-83
2022/03/08 07:38:11;;;;;;;1.67;0.60;;;18.40;43.00;;;;;;4934941;29;20070;-83
2022/03/08 07:40:37;;;;;;;1.63;0.70;;;18.30;42.20;;;;;;4935559;29;20055;-83
2022/03/08 07:43:02;;;;;;;1.48;0.70;;;18.30;42.20;;;;;;4938560;29;20078;-83
2022/03/08 07:45:29;;;;;;;1.92;0.90;;;18.30;42.20;;;;;;4938286;29;20047;-83
2022/03/08 07:47:54;;;;;;;1.23;0.60;;;18.30;42.20;;;;;;4933108;29;20059;-83
2022/03/08 07:50:22;;;;;;;1.48;0.70;;;19.60;42.90;;;;;;4925201;29;20051;-83
2022/03/08 07:52:48;;;;;;;2.33;1.30;;;18.30;42.20;;;;;;4928839;29;20075;-83
2022/03/08 07:55:14;;;;;;;1.52;0.60;;;18.30;42.30;;;;;;4905586;29;20086;-83
2022/03/08 07:58:31;;;;;;;2.33;0.60;;;19.20;43.20;;;;;;4923091;29;20130;-83
2022/03/08 08:01:37;;;;;;;1.77;0.70;;;18.30;42.60;;;;;;4890293;29;20065;-83
2022/03/08 08:04:15;;;;;;;0.95;0.50;;;17.90;42.00;;;;;;4937865;29;20047;-83
2022/03/08 08:21:56;;;;;;;1.65;0.70;;;17.30;41.70;;;;;;4936606;29;20082;-83
2022/03/08 08:31:31;;;;;;;2.88;0.98;;;18.30;42.20;;;;;;5982066;23;20839;-82
2022/03/08 08:33:56;;;;;;;1.10;0.50;;;18.40;42.30;;;;;;4901159;29;20056;-82
2022/03/08 08:37:09;;;;;;;2.47;0.85;;;18.60;42.50;;;;;;4914924;29;20724;-82
2022/03/08 08:43:15;;;;;;;2.40;0.90;;;18.80;42.50;;;;;;4908274;29;20052;-82
2022/03/08 08:50:52;;;;;;;2.67;0.90;;;18.40;42.30;;;;;;5625030;23;20051;-82
2022/03/08 08:53:44;;;;;;;2.63;0.80;;;18.40;42.30;;;;;;4936284;29;20082;-82
2022/03/08 08:56:10;;;;;;;1.80;0.60;;;18.40;42.30;;;;;;4936956;29;20392;-82
2022/03/08 08:59:20;;;;;;;2.65;0.88;;;18.80;42.50;;;;;;4931667;29;20527;-82
2022/03/08 09:01:45;;;;;;;2.25;0.90;;;18.50;42.30;;;;;;4932129;29;20051;-83
2022/03/08 09:04:23;;;;;;;2.05;0.98;;;19.40;43.50;;;;;;4936184;29;20058;-82
2022/03/08 09:06:49;;;;;;;1.90;0.60;;;19.70;43.50;;;;;;4918029;29;20047;-83
2022/03/08 09:09:15;;;;;;;5.22;0.70;;;19.60;42.90;;;;;;4932018;29;20058;-83
2022/03/08 09:11:41;;;;;;;2.38;0.88;;;18.40;42.30;;;;;;4951322;29;20102;-83
2022/03/08 09:14:09;;;;;;;1.95;0.70;;;18.80;42.90;;;;;;4949403;29;20043;-83
2022/03/08 09:16:37;;;;;;;2.15;0.80;;;19.00;43.70;;;;;;4936058;29;20040;-83
2022/03/08 09:19:03;;;;;;;3.47;0.93;;;19.40;42.80;;;;;;4925338;29;20048;-83
2022/03/08 09:21:44;;;;;;;2.42;1.00;;;18.30;42.20;;;;;;4921083;29;20054;-83
2022/03/08 09:24:22;;;;;;;2.92;0.98;;;19.50;42.70;;;;;;4932816;28;20625;-82
2022/03/08 09:26:47;;;;;;;3.60;1.00;;;17.50;42.40;;;;;;4921786;29;20165;-82
2022/03/08 09:29:54;;;;;;;2.80;0.88;;;19.80;42.90;;;;;;4930928;29;20440;-84
2022/03/08 09:32:38;;;;;;;1.55;0.80;;;18.60;42.20;;;;;;4935653;29;20056;-83
2022/03/08 09:35:04;;;;;;;3.78;1.00;;;17.40;41.50;;;;;;4933867;29;20490;-84
2022/03/08 09:37:29;;;;;;;3.28;1.10;;;18.60;42.10;;;;;;4928310;29;20055;-77
2022/03/08 09:39:58;;;;;;;3.10;0.90;;;18.60;42.20;;;;;;4917034;29;20052;-77
2022/03/08 09:42:29;;;;;;;2.63;0.77;;;18.60;42.10;;;;;;4917085;29;20079;-77
2022/03/08 09:45:00;;;;;;;3.30;1.10;;;18.60;42.10;;;;;;4900684;29;20055;-77
2022/03/08 09:47:25;;;;;;;2.55;0.80;;;18.70;42.10;;;;;;4933002;29;20280;-77
2022/03/08 09:49:51;;;;;;;2.72;0.93;;;18.60;42.00;;;;;;4934245;29;20051;-77
2022/03/08 09:52:22;;;;;;;2.75;0.80;;;18.60;42.00;;;;;;4882545;29;20060;-77
2022/03/08 09:54:48;;;;;;;3.05;0.90;;;18.60;42.80;;;;;;4897550;29;20048;-77
2022/03/08 09:57:14;;;;;;;2.85;0.98;;;18.70;42.10;;;;;;4897919;29;20113;-77
2022/03/08 09:59:41;;;;;;;2.67;1.00;;;18.70;42.10;;;;;;4896785;29;20144;-77
2022/03/08 10:02:07;;;;;;;2.63;0.90;;;18.70;42.10;;;;;;4931399;23;20062;-78
2022/03/08 10:04:32;;;;;;;2.67;0.82;;;18.70;42.00;;;;;;4934828;29;20043;-78
2022/03/08 10:06:58;;;;;;;1.92;0.70;;;19.80;42.60;;;;;;4933903;29;20062;-79
2022/03/08 10:09:24;;;;;;;1.42;0.60;;;18.70;42.00;;;;;;4935246;29;20113;-78
2022/03/08 10:11:50;;;;;;;1.83;0.80;;;18.70;42.00;;;;;;4928042;29;20044;-78
2022/03/08 10:14:28;;;;;;;1.83;0.70;;;18.70;42.00;;;;;;4918114;29;20663;-79
2022/03/08 10:28:05;;;;;;;1.85;0.77;;;18.30;41.70;;;;;;4932844;29;20055;-83
2022/03/08 10:31:23;;;;;;;1.83;0.70;;;18.80;42.00;;;;;;4929403;29;20055;-84
2022/03/08 10:50:15;;;;;;;1.65;0.63;;;18.50;41.80;;;;;;4945439;29;20075;-83
2022/03/08 10:52:57;;;;;;;1.77;0.60;;;19.00;42.00;;;;;;4988290;23;20074;-84
2022/03/08 11:00:11;;;;;;;1.58;0.70;;;18.30;41.60;;;;;;4952416;29;20073;-83
2022/03/08 11:03:39;;;;;;;2.55;0.60;;;18.00;41.50;;;;;;4930173;29;20563;-83
2022/03/08 11:06:30;;;;;;;0.93;0.40;;;19.00;42.00;;;;;;4917368;29;20055;-83
2022/03/08 11:09:26;;;;;;;2.30;0.70;;;18.90;41.90;;;;;;4844992;29;20577;-83
2022/03/08 11:11:54;;;;;;;1.27;0.63;;;17.70;41.80;;;;;;4897726;29;20051;-82
2022/03/08 11:14:33;;;;;;;2.47;0.80;;;19.90;42.60;;;;;;4903531;29;20411;-83
2022/03/08 11:23:59;;;;;;;1.58;0.70;;;19.40;42.20;;;;;;4880280;29;20056;-82
2022/03/08 11:26:24;;;;;;;1.05;0.50;;;19.40;42.30;;;;;;4880341;29;20056;-83
2022/03/08 11:33:36;;;;;;;1.52;0.60;;;18.20;41.50;;;;;;4857682;29;20049;-83
2022/03/08 11:36:51;;;;;;;1.55;0.60;;;18.40;41.60;;;;;;4879891;29;20091;-83
2022/03/08 11:47:07;;;;;;;1.63;0.50;;;20.60;43.20;;;;;;4837078;29;20129;-83
2022/03/08 11:50:02;;;;;;;1.33;0.50;;;19.80;42.30;;;;;;4837368;29;20062;-83
2022/03/08 11:52:37;;;;;;;1.45;0.50;;;19.10;42.00;;;;;;4841456;29;20246;-83
2022/03/08 11:55:28;;;;;;;1.70;0.50;;;19.10;42.60;;;;;;4842999;29;20062;-83
2022/03/08 12:02:00;;;;;;;1.60;0.50;;;19.00;41.80;;;;;;4842343;29;20057;-83
2022/03/08 12:04:25;;;;;;;1.58;0.60;;;19.30;42.00;;;;;;4759727;30;20444;-83
2022/03/08 12:07:34;;;;;;;1.60;0.55;;;19.20;42.30;;;;;;4793510;29;20574;-83
2022/03/08 12:10:32;;;;;;;1.55;0.50;;;19.20;41.90;;;;;;4869007;29;20059;-83
2022/03/08 12:13:04;;;;;;;2.60;0.60;;;19.30;41.90;;;;;;4914250;29;20051;-83
2022/03/08 12:15:58;;;;;;;1.27;0.50;;;19.30;42.40;;;;;;4914829;29;20050;-83
2022/03/08 12:18:39;;;;;;;1.48;0.60;;;19.30;41.90;;;;;;4924119;29;20043;-83
2022/03/08 12:21:17;;;;;;;1.17;0.43;;;19.30;41.90;;;;;;4932229;29;20051;-83
2022/03/08 12:24:07;;;;;;;1.52;0.55;;;19.70;42.10;;;;;;4936712;29;20043;-83
2022/03/08 12:26:42;;;;;;;0.98;0.50;;;19.30;41.90;;;;;;4936590;29;20055;-83
2022/03/08 12:29:15;;;;;;;1.25;0.50;;;19.30;41.90;;;;;;4936843;29;20134;-84
2022/03/08 12:32:05;;;;;;;2.05;0.60;;;19.50;41.90;;;;;;4937672;29;20051;-83
2022/03/08 12:34:40;;;;;;;1.67;0.60;;;19.50;41.90;;;;;;4936681;29;20090;-83
2022/03/08 12:37:11;;;;;;;0.75;0.43;;;19.40;41.90;;;;;;4937738;29;20066;-83
2022/03/08 12:39:49;;;;;;;1.65;0.50;;;19.40;41.90;;;;;;4936560;29;20086;-83
2022/03/08 12:42:19;;;;;;;2.08;0.63;;;19.40;41.80;;;;;;4936379;29;20086;-82
2022/03/08 12:47:24;;;;;;;1.65;0.60;;;19.40;41.80;;;;;;4897246;29;20063;-83
2022/03/08 12:49:50;;;;;;;1.20;0.50;;;20.70;42.50;;;;;;4898384;29;20051;-83
2022/03/08 12:52:16;;;;;;;1.98;0.60;;;19.50;41.80;;;;;;4899348;29;20107;-83
2022/03/08 12:54:43;;;;;;;1.17;0.60;;;20.70;42.40;;;;;;4899049;29;20526;-83
2022/03/08 12:57:13;;;;;;;1.33;0.50;;;19.50;41.90;;;;;;4898354;29;20047;-82
2022/03/08 13:03:40;;;;;;;1.20;0.50;;;19.50;41.80;;;;;;4819529;29;20057;-83
2022/03/08 13:06:12;;;;;;;1.17;0.63;;;19.60;42.20;;;;;;4806923;29;20070;-82
2022/03/08 13:23:20;;;;;;;1.00;0.35;;;19.50;41.50;;;;;;4872667;29;20539;-84
2022/03/08 13:26:03;;;;;;;1.45;0.60;;;19.40;41.40;;;;;;4851159;29;20072;-84
2022/03/08 13:28:35;;;;;;;2.97;0.50;;;19.60;41.60;;;;;;4859707;29;20056;-84
2022/03/08 13:34:12;;;;;;;1.08;0.50;;;19.70;41.40;;;;;;5188295;23;20062;-85
2022/03/08 13:36:38;;;;;;;1.30;0.50;;;19.40;41.20;;;;;;4946736;28;20058;-86
2022/03/08 13:39:11;;;;;;;1.48;0.60;;;19.80;41.80;;;;;;4953687;28;20096;-87
2022/03/08 13:41:44;;;;;;;30.92;9.90;;;19.90;41.50;;;;;;4954945;28;20085;-84
2022/03/08 13:44:14;;;;;;;40.97;14.55;;;18.90;41.40;;;;;;4947056;28;20192;-84
2022/03/08 13:46:55;;;;;;;102.07;30.75;;;20.60;42.00;;;;;;4934971;29;20051;-87
2022/03/08 13:49:25;;;;;;;88.75;29.85;;;19.80;41.30;;;;;;4886173;29;20059;-84
2022/03/08 13:52:06;;;;;;;96.25;30.10;;;19.90;41.60;;;;;;4941229;28;20042;-85
2022/03/08 13:54:49;;;;;;;98.05;29.58;;;19.90;41.20;;;;;;4923324;28;20058;-84
2022/03/08 13:57:14;;;;;;;75.15;25.63;;;21.10;42.10;;;;;;4954631;28;20130;-87
2022/03/08 13:59:40;;;;;;;71.40;24.45;;;19.10;40.90;;;;;;4952711;28;20186;-85
2022/03/08 14:02:34;;;;;;;75.55;25.08;;;19.80;41.20;;;;;;4919305;28;20047;-85
2022/03/08 14:05:09;;;;;;;79.70;25.50;;;20.80;41.60;;;;;;4934687;29;20495;-84
2022/03/08 14:07:35;;;;;;;74.63;23.42;;;20.10;41.50;;;;;;4934668;29;20047;-84
2022/03/08 14:10:19;;;;;;;66.28;22.23;;;20.50;41.80;;;;;;4919069;29;20047;-87
2022/03/08 14:12:45;;;;;;;45.05;16.58;;;20.70;42.20;;;;;;4935401;29;20054;-87
2022/03/08 14:15:11;;;;;;;31.73;11.88;;;20.20;41.30;;;;;;4934865;29;20086;-88
2022/03/08 14:18:17;;;;;;;44.83;15.55;;;18.30;40.00;;;;;;4935231;29;20047;-89
2022/03/08 14:20:47;;;;;;;56.95;17.70;;;20.10;40.60;;;;;;4940896;28;20065;-86
2022/03/08 14:23:15;;;;;;;54.55;16.95;;;21.10;42.20;;;;;;4953367;28;20082;-90
2022/03/08 14:32:03;;;;;;;47.97;15.43;;;20.20;41.00;;;;;;1413263;26;20098;-90
2022/03/08 14:34:54;;;;;;;42.10;14.65;;;20.20;41.30;;;;;;4934542;29;20055;-89
2022/03/08 14:37:20;;;;;;;38.88;13.23;;;19.60;40.80;;;;;;4935070;29;20054;-89
2022/03/08 14:40:36;;;;;;;40.63;13.80;;;20.70;41.80;;;;;;4951022;29;20059;-89
2022/03/08 14:43:16;;;;;;;43.15;13.40;;;19.70;40.70;;;;;;4934635;29;20051;-90
2022/03/08 14:45:42;;;;;;;38.92;12.73;;;18.80;40.70;;;;;;4951542;29;20089;-89
2022/03/08 14:48:22;;;;;;;35.20;13.00;;;21.00;41.50;;;;;;4950757;29;20044;-90
2022/03/08 14:58:34;;;;;;;36.40;12.27;;;20.20;41.00;;;;;;5876887;23;20135;-82
2022/03/08 15:01:05;;;;;;;32.10;11.45;;;19.90;41.00;;;;;;4932054;29;20452;-84
2022/03/08 15:03:33;;;;;;;31.40;10.13;;;20.40;41.20;;;;;;4939365;29;20059;-85
2022/03/08 15:06:11;;;;;;;29.65;10.65;;;21.40;41.90;;;;;;4938391;28;20395;-85
2022/03/08 15:08:37;;;;;;;30.92;9.80;;;21.80;42.10;;;;;;4938789;29;20471;-83